Time;durP1;ratioP1;P1;durP2;ratioP2;P2;SDS_P1;SDS_P2;PMS_P1;PMS_P2;Temp;Humidity;BMP_temperature;BMP_pressure;BME280_temperature;BME280_humidity;BME280_pressure;Samples;Min_cycle;Max_cycle;Signal;HPM_P1;HPM_P2
2023/10/02 00:02:43;;;;;;;23.23;11.45;;;23.50;68.90;;;;;;5050622;28;20063;-64
2023/10/02 00:05:52;;;;;;;25.05;12.30;;;23.50;68.90;;;;;;5049802;28;20155;-64
2023/10/02 00:08:57;;;;;;;24.45;12.85;;;23.50;69.00;;;;;;5053090;28;20048;-64
2023/10/02 00:12:11;;;;;;;27.00;12.30;;;23.50;69.30;;;;;;5053868;28;20052;-65
2023/10/02 00:15:15;;;;;;;24.20;11.70;;;23.40;69.40;;;;;;5054203;28;20550;-64
2023/10/02 00:18:18;;;;;;;25.73;12.45;;;23.40;69.60;;;;;;5053131;28;20080;-65
2023/10/02 00:21:22;;;;;;;28.15;13.55;;;23.30;69.70;;;;;;5053729;28;20048;-64
2023/10/02 00:24:27;;;;;;;24.17;11.15;;;23.40;69.40;;;;;;5053826;28;20048;-65
2023/10/02 00:27:32;;;;;;;26.85;12.10;;;23.30;69.90;;;;;;5053621;28;20056;-64
2023/10/02 00:30:36;;;;;;;22.17;11.32;;;23.30;69.80;;;;;;5053633;28;20036;-64
2023/10/02 00:33:40;;;;;;;23.40;12.10;;;23.30;69.90;;;;;;5053555;28;20515;-64
2023/10/02 00:36:44;;;;;;;26.02;11.82;;;23.40;69.40;;;;;;5053587;28;20052;-65
2023/10/02 00:39:52;;;;;;;22.55;10.95;;;23.40;69.90;;;;;;5052765;28;20499;-64
2023/10/02 00:42:59;;;;;;;25.95;11.85;;;23.40;69.80;;;;;;5053643;28;20385;-65
2023/10/02 00:46:03;;;;;;;23.85;11.70;;;23.30;69.90;;;;;;5053193;28;20039;-64
2023/10/02 00:49:25;;;;;;;28.27;12.52;;;23.00;69.90;;;;;;5053540;28;20044;-64
2023/10/02 00:52:29;;;;;;;;;;;23.30;70.30;;;;;;5053506;28;20036;-64
2023/10/02 00:55:34;;;;;;;25.60;11.52;;;23.30;70.20;;;;;;5053130;28;19915;-64
2023/10/02 00:58:38;;;;;;;24.52;11.43;;;23.40;70.10;;;;;;5053098;28;20050;-64
2023/10/02 01:01:44;;;;;;;22.90;11.10;;;23.40;70.00;;;;;;5053114;28;20051;-64
2023/10/02 01:04:47;;;;;;;28.65;12.77;;;23.30;70.20;;;;;;5052356;28;20056;-64
2023/10/02 01:07:54;;;;;;;26.08;12.25;;;23.30;70.30;;;;;;5052912;28;20503;-64
2023/10/02 01:11:02;;;;;;;24.75;11.45;;;23.30;70.50;;;;;;5052047;28;20048;-65
2023/10/02 01:14:09;;;;;;;23.67;12.30;;;23.20;70.60;;;;;;5052748;28;20040;-64
2023/10/02 01:17:14;;;;;;;20.55;11.27;;;23.20;70.70;;;;;;5051798;28;20068;-64
2023/10/02 01:20:35;;;;;;;25.52;12.00;;;23.30;71.00;;;;;;5052634;28;20048;-64
2023/10/02 01:24:09;;;;;;;27.77;12.80;;;23.20;71.00;;;;;;5052875;28;20048;-64
2023/10/02 01:27:14;;;;;;;27.00;11.93;;;23.20;71.10;;;;;;5052453;28;20052;-65
2023/10/02 01:30:20;;;;;;;27.92;11.55;;;23.20;71.10;;;;;;5051948;28;20048;-64
2023/10/02 01:33:32;;;;;;;27.10;12.63;;;23.10;71.20;;;;;;5051976;28;20044;-64
2023/10/02 01:36:38;;;;;;;23.40;11.23;;;23.10;71.40;;;;;;5052665;28;20052;-65
2023/10/02 01:39:42;;;;;;;25.20;11.77;;;23.00;71.50;;;;;;5052325;28;20048;-64
2023/10/02 01:42:47;;;;;;;24.90;12.18;;;23.10;71.70;;;;;;5051367;28;20036;-65
2023/10/02 01:45:56;;;;;;;24.30;11.57;;;23.00;72.40;;;;;;5052352;28;20044;-65
2023/10/02 01:49:03;;;;;;;25.10;12.20;;;23.00;72.00;;;;;;5051603;28;20056;-64
2023/10/02 01:52:11;;;;;;;23.17;11.85;;;22.90;72.30;;;;;;5052086;28;20232;-65
2023/10/02 01:55:27;;;;;;;23.98;11.77;;;22.90;72.50;;;;;;5052255;28;20048;-64
2023/10/02 01:58:32;;;;;;;23.90;11.10;;;22.80;72.30;;;;;;5051428;28;20040;-64
2023/10/02 02:01:46;;;;;;;30.95;12.57;;;22.80;72.10;;;;;;5050968;28;20393;-64
2023/10/02 02:04:50;;;;;;;27.52;12.05;;;22.90;72.30;;;;;;5051017;28;20051;-64
2023/10/02 02:07:54;;;;;;;25.35;11.77;;;22.80;72.10;;;;;;5051869;28;20048;-65
2023/10/02 02:11:14;;;;;;;23.27;11.70;;;22.90;72.20;;;;;;5051945;28;20388;-64
2023/10/02 02:14:19;;;;;;;22.77;11.23;;;22.90;72.10;;;;;;5051589;28;20052;-64
2023/10/02 02:17:25;;;;;;;21.60;11.02;;;22.80;72.20;;;;;;5050938;28;20044;-64
2023/10/02 02:20:45;;;;;;;24.60;11.05;;;22.80;71.90;;;;;;5051863;28;20055;-64
2023/10/02 02:23:49;;;;;;;23.67;10.82;;;22.70;72.30;;;;;;5051594;28;20048;-64
2023/10/02 02:26:57;;;;;;;21.73;10.40;;;22.70;72.30;;;;;;5051640;28;20040;-64
2023/10/02 02:30:10;;;;;;;22.73;10.02;;;22.80;72.20;;;;;;5049898;28;20519;-64
2023/10/02 02:33:15;;;;;;;23.67;10.90;;;22.70;72.20;;;;;;5050779;28;20393;-64
2023/10/02 02:36:21;;;;;;;21.98;10.70;;;22.70;72.70;;;;;;5051687;28;20064;-64
2023/10/02 02:39:27;;;;;;;22.05;11.18;;;22.70;72.90;;;;;;5051571;28;20040;-64
2023/10/02 02:42:32;;;;;;;26.33;11.02;;;22.60;72.90;;;;;;5051180;28;20040;-64
2023/10/02 02:45:36;;;;;;;20.88;10.50;;;22.60;73.10;;;;;;5051255;28;20044;-64
2023/10/02 02:48:44;;;;;;;21.88;10.65;;;22.60;72.30;;;;;;5051303;28;20067;-64
2023/10/02 02:51:48;;;;;;;20.42;10.25;;;22.60;72.80;;;;;;5051356;28;20504;-64
2023/10/02 02:55:04;;;;;;;22.55;10.07;;;22.50;72.80;;;;;;5051838;28;20064;-64
2023/10/02 02:58:09;;;;;;;18.52;9.52;;;22.60;72.10;;;;;;5051016;28;20040;-64
2023/10/02 03:01:16;;;;;;;24.85;9.82;;;22.60;72.60;;;;;;5050380;28;20044;-64
2023/10/02 03:04:20;;;;;;;18.52;9.70;;;22.60;72.60;;;;;;5051215;28;20048;-64
2023/10/02 03:07:30;;;;;;;21.70;9.73;;;22.60;72.10;;;;;;5050974;28;20052;-64
2023/10/02 03:10:37;;;;;;;18.90;9.15;;;22.60;72.50;;;;;;5051122;28;20052;-64
2023/10/02 03:13:41;;;;;;;17.65;10.05;;;22.60;72.70;;;;;;5050840;28;20048;-64
2023/10/02 03:16:45;;;;;;;24.85;9.40;;;22.60;72.60;;;;;;5050866;28;20048;-64
2023/10/02 03:19:49;;;;;;;15.55;9.25;;;22.60;72.50;;;;;;5051025;28;20050;-64
2023/10/02 03:22:55;;;;;;;23.23;9.45;;;22.70;72.30;;;;;;5050100;28;20511;-64
2023/10/02 03:25:59;;;;;;;20.38;9.80;;;22.70;72.20;;;;;;5050963;28;20397;-64
2023/10/02 03:29:11;;;;;;;17.02;8.98;;;22.70;72.50;;;;;;5050858;28;20444;-64
2023/10/02 03:32:15;;;;;;;20.02;9.00;;;22.70;72.50;;;;;;5050619;28;20044;-64
2023/10/02 03:35:19;;;;;;;23.20;9.32;;;22.70;72.70;;;;;;5050503;28;20056;-65
2023/10/02 03:38:34;;;;;;;20.67;9.88;;;22.70;72.60;;;;;;5050859;28;20040;-64
2023/10/02 03:41:48;;;;;;;20.27;9.32;;;22.60;72.60;;;;;;5052292;28;20040;-64
2023/10/02 03:44:59;;;;;;;19.63;9.52;;;22.60;72.40;;;;;;5054775;28;20665;-64
2023/10/02 03:48:07;;;;;;;23.38;9.85;;;22.70;72.60;;;;;;5053677;28;20060;-64
2023/10/02 03:51:11;;;;;;;17.80;9.10;;;22.70;72.90;;;;;;5054124;28;20044;-64
2023/10/02 03:54:17;;;;;;;19.48;9.27;;;22.80;72.60;;;;;;5054460;28;20044;-64
2023/10/02 03:57:47;;;;;;;22.67;9.80;;;22.80;72.70;;;;;;5054486;28;20067;-64
2023/10/02 04:00:51;;;;;;;22.50;9.70;;;22.80;72.90;;;;;;5054475;28;20048;-64
2023/10/02 04:07:20;;;;;;;22.48;10.02;;;22.70;73.00;;;;;;5054045;28;20071;-64
2023/10/02 04:10:24;;;;;;;16.40;9.15;;;22.80;73.30;;;;;;5054288;28;20040;-64
2023/10/02 04:13:34;;;;;;;16.83;9.20;;;22.80;73.40;;;;;;5054201;28;20048;-64
2023/10/02 04:16:38;;;;;;;20.17;9.48;;;22.70;73.60;;;;;;5053120;28;20044;-64
2023/10/02 04:19:49;;;;;;;21.92;9.63;;;22.70;73.90;;;;;;5052994;28;20044;-64
2023/10/02 04:23:18;;;;;;;21.08;9.82;;;22.70;74.00;;;;;;5053763;28;20516;-64
2023/10/02 04:26:22;;;;;;;20.15;10.25;;;22.70;74.10;;;;;;5053736;28;20116;-64
2023/10/02 04:29:26;;;;;;;18.15;9.75;;;22.70;73.60;;;;;;5053543;28;20052;-64
2023/10/02 04:32:32;;;;;;;17.35;9.43;;;22.70;73.40;;;;;;5053780;28;20044;-64
2023/10/02 04:35:44;;;;;;;32.03;10.52;;;22.60;74.30;;;;;;5053336;28;20052;-64
2023/10/02 04:38:49;;;;;;;23.80;10.32;;;22.60;73.90;;;;;;5053633;28;20048;-64
2023/10/02 04:42:11;;;;;;;21.20;9.32;;;22.50;73.90;;;;;;5053447;28;20499;-64
2023/10/02 04:45:25;;;;;;;20.45;9.07;;;22.50;73.40;;;;;;5053254;28;20032;-64
2023/10/02 04:48:39;;;;;;;27.67;10.18;;;22.50;73.50;;;;;;5053526;28;20059;-64
2023/10/02 04:51:46;;;;;;;23.73;9.80;;;22.50;73.40;;;;;;5053161;28;20404;-64
2023/10/02 04:55:06;;;;;;;21.83;9.75;;;22.60;72.90;;;;;;5052873;28;20052;-64
2023/10/02 04:58:17;;;;;;;21.25;10.23;;;22.50;73.00;;;;;;5053168;28;20055;-64
2023/10/02 05:01:29;;;;;;;29.13;10.43;;;22.60;73.10;;;;;;5053278;28;20048;-64
2023/10/02 05:04:32;;;;;;;23.27;9.88;;;22.50;72.80;;;;;;5053283;28;20033;-64
2023/10/02 05:07:36;;;;;;;22.25;9.63;;;22.60;73.10;;;;;;5052885;28;20051;-64
2023/10/02 05:10:42;;;;;;;26.50;9.95;;;22.60;73.10;;;;;;5051874;28;20040;-64
2023/10/02 05:17:38;;;;;;;22.55;10.18;;;22.60;72.00;;;;;;5052801;28;20111;-64
2023/10/02 05:20:44;;;;;;;18.13;9.05;;;22.60;72.30;;;;;;5052470;28;20396;-64
2023/10/02 05:24:00;;;;;;;16.85;8.90;;;22.60;71.80;;;;;;5052532;28;20468;-64
2023/10/02 05:27:04;;;;;;;20.75;9.57;;;22.70;72.10;;;;;;5052538;28;20056;-64
2023/10/02 05:30:12;;;;;;;25.73;10.27;;;22.80;71.80;;;;;;5052655;28;20040;-64
2023/10/02 05:33:37;;;;;;;19.88;9.02;;;23.10;70.10;;;;;;5051502;28;20068;-64
2023/10/02 05:36:55;;;;;;;21.98;9.55;;;23.30;70.70;;;;;;5052507;28;20055;-65
2023/10/02 05:43:23;;;;;;;23.10;10.57;;;25.80;67.00;;;;;;5051933;28;20393;-65
2023/10/02 05:46:52;;;;;;;19.13;10.50;;;26.90;64.80;;;;;;5052282;28;20052;-65
2023/10/02 05:49:53;;;;;;;26.60;11.50;;;27.80;63.80;;;;;;5052245;28;20068;-65
2023/10/02 05:52:57;;;;;;;22.98;11.02;;;28.90;62.20;;;;;;5051861;28;20460;-65
2023/10/02 05:59:24;;;;;;;26.77;11.98;;;29.00;62.40;;;;;;5051699;28;20055;-64
2023/10/02 06:02:28;;;;;;;26.00;12.45;;;28.90;62.90;;;;;;5051127;28;20052;-65
2023/10/02 06:05:33;;;;;;;24.17;11.52;;;29.20;62.50;;;;;;5051743;28;20040;-65
2023/10/02 06:08:40;;;;;;;39.45;13.55;;;29.90;61.50;;;;;;5051631;28;20412;-65
2023/10/02 06:11:59;;;;;;;30.80;12.50;;;29.70;60.60;;;;;;5051751;28;20040;-65
2023/10/02 06:15:22;;;;;;;33.33;13.13;;;29.80;61.60;;;;;;5051353;28;20543;-65
2023/10/02 06:18:27;;;;;;;37.90;13.30;;;29.80;61.20;;;;;;5051373;28;20044;-64
2023/10/02 06:21:33;;;;;;;23.05;11.38;;;29.80;61.90;;;;;;5051163;28;20067;-65
2023/10/02 06:24:37;;;;;;;25.08;12.35;;;30.10;60.90;;;;;;5051120;28;20064;-65
2023/10/02 06:27:43;;;;;;;23.08;12.00;;;30.10;61.10;;;;;;5049956;28;20043;-65
2023/10/02 06:30:47;;;;;;;21.45;11.45;;;29.90;61.20;;;;;;5051032;28;20051;-66
2023/10/02 06:33:51;;;;;;;26.80;11.60;;;29.50;62.50;;;;;;5050736;28;20044;-66
2023/10/02 06:37:07;;;;;;;28.55;12.50;;;29.10;63.10;;;;;;5051363;28;20044;-66
2023/10/02 06:40:14;;;;;;;31.25;11.48;;;28.80;63.90;;;;;;5050930;28;20039;-65
2023/10/02 06:43:28;;;;;;;28.70;12.30;;;28.50;64.40;;;;;;5050780;28;20396;-65
2023/10/02 06:46:32;;;;;;;30.60;11.98;;;28.40;64.50;;;;;;5050822;28;20068;-64
2023/10/02 06:49:36;;;;;;;29.20;12.60;;;28.30;64.60;;;;;;5050925;28;20055;-65
2023/10/02 06:52:41;;;;;;;28.63;12.20;;;28.20;64.60;;;;;;5049643;28;20039;-64
2023/10/02 06:55:45;;;;;;;33.63;11.63;;;28.10;64.50;;;;;;5050793;28;20048;-64
2023/10/02 06:58:56;;;;;;;27.75;11.63;;;28.10;64.30;;;;;;5050660;28;20047;-63
2023/10/02 07:02:06;;;;;;;26.45;11.88;;;28.00;64.00;;;;;;5050373;28;20055;-64
2023/10/02 07:05:10;;;;;;;26.13;10.77;;;28.10;63.80;;;;;;5050438;28;20036;-65
2023/10/02 07:08:18;;;;;;;21.67;12.23;;;28.20;64.00;;;;;;5050398;28;20518;-64
2023/10/02 07:11:22;;;;;;;26.02;10.48;;;28.00;63.50;;;;;;5050521;28;20044;-63
2023/10/02 07:14:35;;;;;;;18.38;10.00;;;28.00;63.50;;;;;;5050250;28;20036;-63
2023/10/02 07:17:48;;;;;;;19.45;10.07;;;28.00;63.50;;;;;;5054133;28;20500;-64
2023/10/02 07:20:53;;;;;;;27.13;11.05;;;27.90;64.40;;;;;;5054348;28;20048;-64
2023/10/02 07:23:58;;;;;;;26.30;10.52;;;27.70;64.30;;;;;;5054430;28;20044;-64
2023/10/02 07:27:02;;;;;;;23.90;10.38;;;27.30;64.30;;;;;;5054145;28;20056;-64
2023/10/02 07:30:09;;;;;;;32.40;10.88;;;27.50;64.30;;;;;;5054594;28;20048;-64
2023/10/02 07:33:13;;;;;;;22.27;11.25;;;27.70;65.10;;;;;;5054501;28;20052;-64
2023/10/02 07:36:17;;;;;;;25.23;10.80;;;27.60;64.50;;;;;;5053942;28;20064;-64
2023/10/02 07:39:37;;;;;;;22.77;9.95;;;27.80;64.20;;;;;;5053131;28;20049;-63
2023/10/02 07:42:41;;;;;;;21.13;9.93;;;27.40;63.50;;;;;;5053804;28;20044;-64
2023/10/02 07:49:21;;;;;;;30.23;11.00;;;27.10;65.30;;;;;;5053633;28;20503;-65
2023/10/02 07:52:35;;;;;;;28.58;11.15;;;27.50;64.20;;;;;;5053571;28;20073;-64
2023/10/02 07:55:47;;;;;;;23.77;10.43;;;27.70;64.20;;;;;;5053862;28;20052;-64
2023/10/02 07:58:55;;;;;;;27.23;10.35;;;27.70;63.90;;;;;;5051761;28;20044;-64
2023/10/02 08:02:21;;;;;;;24.33;11.75;;;27.80;62.90;;;;;;5052963;28;20056;-65
2023/10/02 08:05:25;;;;;;;28.30;10.95;;;28.20;64.30;;;;;;5053256;28;20064;-64
2023/10/02 08:08:32;;;;;;;20.73;10.63;;;27.60;63.00;;;;;;5053439;28;20071;-63
2023/10/02 08:11:38;;;;;;;20.13;10.60;;;27.80;64.20;;;;;;5053270;28;20380;-64
2023/10/02 08:14:42;;;;;;;23.15;10.85;;;27.90;63.20;;;;;;5053119;28;20044;-63
2023/10/02 08:20:50;;;;;;;24.27;10.98;;;27.90;62.90;;;;;;5053272;28;20507;-65
2023/10/02 08:23:59;;;;;;;25.52;10.88;;;28.30;62.60;;;;;;5052966;28;20660;-64
2023/10/02 08:27:04;;;;;;;18.90;10.32;;;28.40;62.40;;;;;;5052805;28;20060;-65
2023/10/02 08:33:31;;;;;;;23.02;11.10;;;28.60;61.20;;;;;;5053022;28;20040;-65
2023/10/02 08:36:37;;;;;;;21.63;10.57;;;28.80;60.30;;;;;;5052931;28;20056;-64
2023/10/02 08:39:41;;;;;;;23.95;11.13;;;28.80;58.10;;;;;;5053019;28;20044;-64
2023/10/02 08:42:52;;;;;;;24.73;11.15;;;28.30;58.00;;;;;;5053031;28;20052;-63
2023/10/02 08:45:58;;;;;;;22.48;10.93;;;26.90;58.10;;;;;;5053055;28;20115;-63
2023/10/02 08:49:06;;;;;;;21.17;11.70;;;28.10;58.30;;;;;;5052743;28;20063;-64
2023/10/02 08:52:11;;;;;;;26.55;9.90;;;26.80;56.80;;;;;;5052898;28;20492;-66
2023/10/02 08:55:34;;;;;;;19.75;10.35;;;28.00;57.90;;;;;;5052408;28;20040;-64
2023/10/02 08:58:39;;;;;;;23.65;9.98;;;28.00;58.60;;;;;;5052388;28;20056;-63
2023/10/02 09:01:47;;;;;;;22.70;10.18;;;28.20;59.10;;;;;;5052589;28;20112;-63
2023/10/02 09:04:55;;;;;;;22.45;11.25;;;28.40;58.50;;;;;;5052591;28;20044;-62
2023/10/02 09:08:02;;;;;;;18.48;10.30;;;28.30;58.80;;;;;;5052421;28;20056;-63
2023/10/02 09:11:07;;;;;;;27.45;10.32;;;28.20;59.90;;;;;;5051963;28;20372;-63
2023/10/02 09:14:21;;;;;;;20.55;10.88;;;28.00;60.10;;;;;;5052421;28;20052;-65
2023/10/02 09:17:43;;;;;;;23.35;10.77;;;28.10;60.80;;;;;;5052292;28;20043;-65
2023/10/02 09:21:12;;;;;;;20.40;10.55;;;28.30;60.90;;;;;;5052544;28;20044;-65
2023/10/02 09:24:19;;;;;;;24.88;11.25;;;28.50;60.70;;;;;;5052218;28;20052;-64
2023/10/02 09:27:24;;;;;;;21.75;10.38;;;28.60;59.70;;;;;;5052387;28;20051;-64
2023/10/02 09:33:40;;;;;;;22.17;10.77;;;28.80;59.80;;;;;;5051692;28;20048;-63
2023/10/02 09:36:54;;;;;;;20.80;10.55;;;28.70;60.90;;;;;;5051889;28;20044;-65
2023/10/02 09:39:57;;;;;;;21.48;10.52;;;28.90;59.20;;;;;;5051189;28;20044;-64
2023/10/02 09:43:10;;;;;;;28.23;11.13;;;28.90;60.00;;;;;;5051825;28;20040;-64
2023/10/02 09:46:20;;;;;;;25.10;10.77;;;28.70;60.00;;;;;;5051792;28;20039;-64
2023/10/02 09:49:31;;;;;;;29.23;11.35;;;28.20;60.40;;;;;;5051680;28;20051;-67
2023/10/02 09:52:39;;;;;;;25.00;10.87;;;28.10;60.80;;;;;;5051788;28;20040;-66
2023/10/02 09:55:55;;;;;;;20.52;10.70;;;28.50;60.40;;;;;;5050287;28;20271;-65
2023/10/02 09:59:16;;;;;;;23.17;11.15;;;28.50;61.00;;;;;;5051703;28;20048;-64
2023/10/02 10:05:45;;;;;;;18.60;10.57;;;28.80;59.30;;;;;;5051316;28;20048;-65
2023/10/02 10:12:50;;;;;;;19.92;11.00;;;29.00;60.00;;;;;;5051190;28;20044;-64
2023/10/02 10:16:18;;;;;;;23.52;11.27;;;29.10;60.20;;;;;;5050990;28;20052;-65
2023/10/02 10:19:26;;;;;;;23.67;10.90;;;29.30;60.40;;;;;;5050899;28;20047;-65
2023/10/02 10:22:39;;;;;;;24.60;11.18;;;29.30;60.30;;;;;;5050433;28;20044;-65
2023/10/02 10:25:44;;;;;;;23.40;11.10;;;29.20;59.20;;;;;;5051185;28;20063;-64
2023/10/02 10:28:53;;;;;;;21.65;10.70;;;29.30;58.20;;;;;;5050114;28;20052;-65
2023/10/02 10:32:05;;;;;;;21.30;11.60;;;29.30;58.80;;;;;;5051031;28;20397;-65
2023/10/02 10:35:12;;;;;;;22.15;11.27;;;29.30;59.30;;;;;;5050929;28;20052;-65
2023/10/02 10:38:25;;;;;;;24.55;11.98;;;29.20;59.20;;;;;;5050811;28;20055;-65
2023/10/02 10:41:33;;;;;;;18.40;9.80;;;29.20;60.00;;;;;;5050548;28;20048;-64
2023/10/02 10:44:43;;;;;;;18.65;10.35;;;29.10;59.30;;;;;;5051246;28;20044;-65
2023/10/02 10:47:47;;;;;;;24.50;11.67;;;29.20;59.90;;;;;;5050752;28;20056;-65
2023/10/02 10:51:01;;;;;;;20.98;10.65;;;29.10;59.10;;;;;;5049945;28;20393;-65
2023/10/02 10:54:12;;;;;;;18.40;10.25;;;29.00;59.60;;;;;;5050732;28;20040;-64
2023/10/02 10:57:19;;;;;;;20.83;10.93;;;29.00;58.60;;;;;;5050862;28;20047;-64
2023/10/02 11:00:25;;;;;;;20.75;9.75;;;29.00;59.20;;;;;;5050927;28;20044;-64
2023/10/02 11:03:34;;;;;;;30.45;11.15;;;29.10;59.10;;;;;;5051117;28;20052;-65
2023/10/02 11:06:41;;;;;;;31.95;11.98;;;28.80;58.00;;;;;;5051190;28;20048;-65
2023/10/02 11:13:24;;;;;;;20.35;9.98;;;29.00;58.70;;;;;;5050905;28;20626;-64
2023/10/02 11:16:35;;;;;;;21.65;10.85;;;26.40;56.30;;;;;;5050064;28;20052;-64
2023/10/02 11:19:55;;;;;;;17.88;10.57;;;28.90;58.80;;;;;;5050748;28;20130;-65
2023/10/02 11:23:03;;;;;;;26.33;10.70;;;29.10;58.80;;;;;;5050782;28;20495;-65
2023/10/02 11:26:15;;;;;;;21.27;10.93;;;29.10;59.60;;;;;;5050856;28;20048;-65
2023/10/02 11:29:23;;;;;;;19.92;10.35;;;29.10;59.30;;;;;;5050796;28;20059;-65
2023/10/02 11:32:58;;;;;;;23.35;9.50;;;29.00;58.40;;;;;;5051329;28;20048;-65
2023/10/02 11:36:11;;;;;;;20.83;10.23;;;29.00;59.00;;;;;;5052792;28;20048;-63
2023/10/02 11:39:19;;;;;;;19.58;10.43;;;29.10;59.00;;;;;;5050483;28;20040;-65
2023/10/02 11:42:23;;;;;;;17.90;10.23;;;29.00;59.40;;;;;;5050914;28;20389;-65
2023/10/02 11:45:29;;;;;;;21.95;9.52;;;;;;;;;;5050876;28;20044;-65
2023/10/02 11:48:32;;;;;;;22.08;10.55;;;29.20;57.90;;;;;;5051015;28;20392;-65
2023/10/02 11:51:37;;;;;;;20.23;10.52;;;29.10;58.90;;;;;;5050527;28;20540;-63
2023/10/02 11:54:41;;;;;;;25.00;10.73;;;29.20;59.00;;;;;;5050209;28;20039;-63
2023/10/02 11:57:51;;;;;;;25.23;11.32;;;29.10;57.70;;;;;;5050390;28;20048;-63
2023/10/02 12:00:54;;;;;;;21.63;11.48;;;29.10;57.90;;;;;;5048504;28;20508;-63
2023/10/02 12:03:58;;;;;;;17.88;10.10;;;29.10;57.00;;;;;;5053288;28;20051;-63
2023/10/02 12:07:03;;;;;;;18.75;10.10;;;29.10;57.60;;;;;;5052833;28;20036;-64
2023/10/02 12:10:07;;;;;;;28.90;11.40;;;29.20;57.90;;;;;;5052780;28;20060;-63
2023/10/02 12:13:11;;;;;;;23.75;10.45;;;29.20;57.30;;;;;;5053028;28;20040;-63
2023/10/02 12:16:15;;;;;;;20.15;11.07;;;29.20;56.60;;;;;;5053646;28;20048;-64
2023/10/02 12:19:19;;;;;;;25.55;10.90;;;29.20;57.10;;;;;;5054008;28;20048;-64
2023/10/02 12:22:26;;;;;;;24.17;11.75;;;29.20;58.10;;;;;;5053482;28;20048;-64
2023/10/02 12:25:30;;;;;;;25.23;11.18;;;29.30;57.70;;;;;;5053976;28;20044;-64
2023/10/02 12:28:38;;;;;;;20.20;11.20;;;29.30;57.20;;;;;;5053775;28;20060;-64
2023/10/02 12:31:43;;;;;;;19.77;11.05;;;29.30;57.40;;;;;;5052964;28;20048;-64
2023/10/02 12:34:47;;;;;;;20.27;10.43;;;29.30;57.60;;;;;;5051313;28;20064;-65
2023/10/02 12:37:53;;;;;;;25.25;13.00;;;29.30;57.10;;;;;;5050790;28;20074;-64
2023/10/02 12:40:57;;;;;;;22.33;11.70;;;29.30;55.70;;;;;;5051342;28;20068;-65
2023/10/02 12:44:02;;;;;;;21.88;10.88;;;29.40;56.70;;;;;;5051223;28;20051;-64
2023/10/02 12:47:07;;;;;;;19.65;11.35;;;29.40;55.60;;;;;;5050097;28;20067;-64
2023/10/02 12:50:11;;;;;;;22.08;12.00;;;29.30;55.20;;;;;;5051027;28;20515;-65
2023/10/02 12:53:15;;;;;;;19.20;11.05;;;29.30;55.30;;;;;;5051544;28;20052;-64
2023/10/02 12:56:23;;;;;;;23.80;11.43;;;29.40;55.00;;;;;;5052669;28;20043;-64
2023/10/02 12:59:26;;;;;;;20.30;10.75;;;29.40;54.70;;;;;;5052778;28;20067;-65
2023/10/02 13:02:31;;;;;;;24.85;10.82;;;29.30;53.70;;;;;;5052838;28;20048;-64
2023/10/02 13:05:36;;;;;;;20.27;10.88;;;29.30;54.60;;;;;;5052775;28;20040;-67
2023/10/02 13:08:44;;;;;;;24.90;10.20;;;29.30;54.30;;;;;;5052113;28;20048;-64
2023/10/02 13:11:48;;;;;;;20.02;11.07;;;29.40;54.70;;;;;;5052739;28;20056;-64
2023/10/02 13:14:54;;;;;;;21.73;9.93;;;29.40;54.30;;;;;;5052044;28;20584;-64
2023/10/02 13:17:59;;;;;;;24.00;10.57;;;29.50;53.90;;;;;;5052963;28;20045;-64
2023/10/02 13:21:06;;;;;;;16.65;10.27;;;29.50;54.30;;;;;;5052397;28;20412;-66
2023/10/02 13:24:17;;;;;;;17.30;10.52;;;29.40;53.60;;;;;;5052747;28;20052;-65
2023/10/02 13:27:21;;;;;;;19.92;10.52;;;29.40;54.30;;;;;;5052764;28;20040;-65
2023/10/02 13:30:30;;;;;;;21.13;9.70;;;29.30;53.70;;;;;;5052458;28;20060;-65
2023/10/02 13:33:34;;;;;;;19.40;9.95;;;29.30;53.90;;;;;;5052211;28;20055;-64
2023/10/02 13:36:39;;;;;;;18.90;9.82;;;29.30;54.10;;;;;;5052347;28;20392;-65
2023/10/02 13:39:43;;;;;;;21.55;10.07;;;29.30;54.40;;;;;;5052074;28;20218;-64
2023/10/02 13:42:49;;;;;;;23.75;10.00;;;29.30;53.80;;;;;;5052447;28;20408;-64
2023/10/02 13:45:53;;;;;;;25.23;10.60;;;29.40;54.30;;;;;;5052147;28;20044;-64
2023/10/02 13:48:58;;;;;;;17.55;9.10;;;29.40;54.20;;;;;;5052194;28;20064;-65
2023/10/02 13:52:02;;;;;;;20.20;9.55;;;29.30;53.40;;;;;;5051653;28;20056;-65
2023/10/02 13:55:26;;;;;;;22.70;9.77;;;29.30;54.10;;;;;;5051037;28;20048;-65
2023/10/02 13:58:30;;;;;;;20.67;9.35;;;29.30;54.20;;;;;;5052097;28;20047;-65
2023/10/02 14:01:34;;;;;;;26.85;9.98;;;29.30;54.40;;;;;;5051639;28;20048;-65
2023/10/02 14:04:39;;;;;;;16.25;8.63;;;29.30;55.10;;;;;;5051653;28;20044;-65
2023/10/02 14:07:44;;;;;;;20.30;9.30;;;29.40;54.00;;;;;;5051765;28;20048;-64
2023/10/02 14:10:47;;;;;;;25.50;9.40;;;29.30;54.80;;;;;;5051509;28;20064;-65
2023/10/02 14:13:54;;;;;;;17.98;8.73;;;29.40;55.10;;;;;;5051308;28;20396;-65
2023/10/02 14:16:58;;;;;;;26.13;7.95;;;29.40;54.60;;;;;;5051225;28;20059;-65
2023/10/02 14:20:04;;;;;;;24.45;7.97;;;29.40;54.20;;;;;;5051019;28;20044;-66
2023/10/02 14:23:08;;;;;;;18.83;8.68;;;29.40;54.30;;;;;;5051391;28;20534;-65
2023/10/02 14:26:16;;;;;;;20.60;9.20;;;29.40;54.50;;;;;;5051308;28;20496;-65
2023/10/02 14:29:21;;;;;;;17.23;8.50;;;29.40;54.50;;;;;;5050771;28;20074;-66
2023/10/02 14:32:25;;;;;;;19.55;8.13;;;29.30;54.80;;;;;;5050370;28;20060;-66
2023/10/02 14:35:29;;;;;;;16.00;7.28;;;29.30;54.90;;;;;;5050083;28;20064;-67
2023/10/02 14:38:35;;;;;;;19.45;8.20;;;29.30;54.60;;;;;;5051274;28;20047;-66
2023/10/02 14:41:40;;;;;;;12.82;7.20;;;29.30;54.90;;;;;;5051040;28;20048;-66
2023/10/02 14:44:44;;;;;;;14.15;7.90;;;29.30;54.10;;;;;;5051217;28;20055;-66
2023/10/02 14:47:48;;;;;;;16.85;8.38;;;29.30;54.50;;;;;;5051172;28;20063;-66
2023/10/02 14:50:54;;;;;;;15.90;7.65;;;29.30;54.40;;;;;;5050982;28;20053;-67
2023/10/02 14:54:02;;;;;;;19.75;8.63;;;29.30;54.50;;;;;;5050562;28;20040;-66
2023/10/02 14:57:08;;;;;;;16.50;8.20;;;29.30;54.80;;;;;;5050782;28;20369;-66
2023/10/02 15:00:14;;;;;;;13.93;7.63;;;29.20;54.70;;;;;;5050823;28;20044;-67
2023/10/02 15:03:18;;;;;;;13.65;7.30;;;29.20;54.40;;;;;;5049724;28;20148;-67
2023/10/02 15:06:23;;;;;;;14.85;7.15;;;29.20;54.70;;;;;;5050899;28;20048;-64
2023/10/02 15:09:29;;;;;;;15.98;7.70;;;29.20;54.00;;;;;;5050745;28;20059;-64
2023/10/02 15:12:33;;;;;;;13.20;7.22;;;29.20;54.60;;;;;;5050736;28;20116;-66
2023/10/02 15:15:37;;;;;;;26.45;8.27;;;29.20;54.60;;;;;;5050575;28;20116;-66
2023/10/02 15:18:41;;;;;;;11.77;6.78;;;29.10;54.80;;;;;;5050742;28;20052;-66
2023/10/02 15:21:45;;;;;;;13.52;6.90;;;29.10;54.60;;;;;;5050826;28;20048;-67
2023/10/02 15:24:49;;;;;;;17.48;7.65;;;29.10;54.00;;;;;;5050574;28;20044;-66
2023/10/02 15:27:53;;;;;;;11.93;6.70;;;29.10;54.70;;;;;;5049363;28;20044;-67
2023/10/02 15:30:57;;;;;;;16.38;6.95;;;29.10;54.70;;;;;;5050080;28;20400;-67
2023/10/02 15:34:01;;;;;;;15.13;7.13;;;29.00;54.90;;;;;;5050232;28;20048;-66
2023/10/02 15:37:06;;;;;;;19.15;7.60;;;29.00;55.00;;;;;;5051399;28;20056;-66
2023/10/02 15:40:14;;;;;;;13.82;7.78;;;29.00;54.90;;;;;;5054515;28;20412;-66
2023/10/02 15:43:18;;;;;;;20.30;7.65;;;28.90;55.20;;;;;;5053711;28;20432;-67
2023/10/02 15:46:22;;;;;;;14.68;7.55;;;28.90;55.30;;;;;;5053517;28;20044;-66
2023/10/02 15:49:26;;;;;;;15.98;7.38;;;28.80;55.50;;;;;;5053656;28;20051;-66
2023/10/02 15:52:31;;;;;;;15.25;8.05;;;28.80;54.70;;;;;;5053836;28;20043;-66
2023/10/02 15:55:35;;;;;;;14.27;7.78;;;28.70;54.90;;;;;;5054088;28;20051;-66
2023/10/02 15:58:39;;;;;;;27.10;10.00;;;28.70;55.80;;;;;;5053895;28;20044;-66
2023/10/02 16:01:43;;;;;;;16.50;9.25;;;28.60;56.20;;;;;;5054077;28;20044;-66
2023/10/02 16:04:51;;;;;;;21.38;9.82;;;28.60;56.80;;;;;;5053858;28;20055;-67
2023/10/02 16:07:56;;;;;;;28.50;11.65;;;28.50;59.10;;;;;;5054047;28;20496;-66
2023/10/02 16:10:59;;;;;;;23.60;10.48;;;28.50;63.70;;;;;;5053639;28;20052;-66
2023/10/02 16:14:04;;;;;;;22.92;10.77;;;29.40;65.80;;;;;;5053767;28;20056;-66
2023/10/02 16:17:07;;;;;;;21.80;10.75;;;29.10;66.00;;;;;;5053595;28;20048;-66
2023/10/02 16:20:15;;;;;;;25.27;10.95;;;28.20;65.90;;;;;;5053300;28;20052;-67
2023/10/02 16:23:19;;;;;;;27.05;10.65;;;28.10;66.90;;;;;;5053600;28;20051;-67
2023/10/02 16:26:24;;;;;;;24.55;11.02;;;28.00;67.40;;;;;;5053589;28;20044;-67
2023/10/02 16:29:28;;;;;;;22.50;10.20;;;27.80;68.30;;;;;;5053449;28;20071;-67
2023/10/02 16:32:32;;;;;;;25.90;10.82;;;27.70;68.80;;;;;;5053580;28;20399;-67
2023/10/02 16:35:36;;;;;;;32.90;11.23;;;27.70;69.20;;;;;;5053206;28;20060;-66